Time;durP1;ratioP1;P1;durP2;ratioP2;P2;SDS_P1;SDS_P2;PMS_P1;PMS_P2;Temp;Humidity;BMP_temperature;BMP_pressure;BME280_temperature;BME280_humidity;BME280_pressure;Samples;Min_cycle;Max_cycle;Signal;HPM_P1;HPM_P2
2021/11/23 00:00:08;;;;;;;2.80;2.28;;;4.10;95.50;;;;;;5006863;28;20022;-90
2021/11/23 00:02:34;;;;;;;3.28;1.80;;;4.00;95.60;;;;;;5007282;28;20057;-89
2021/11/23 00:05:00;;;;;;;2.10;1.90;;;4.00;95.60;;;;;;4998078;28;20030;-90
2021/11/23 00:07:26;;;;;;;4.45;1.67;;;4.00;95.60;;;;;;4996991;28;20034;-89
2021/11/23 00:09:52;;;;;;;2.63;1.95;;;4.00;95.70;;;;;;4996645;28;20030;-90
2021/11/23 00:12:17;;;;;;;2.17;1.63;;;4.00;95.80;;;;;;4997148;28;20125;-90
2021/11/23 00:14:44;;;;;;;2.00;1.50;;;4.00;95.70;;;;;;4996294;28;20100;-89
2021/11/23 00:17:10;;;;;;;3.42;2.08;;;4.00;95.70;;;;;;4996685;28;20026;-89
2021/11/23 00:19:36;;;;;;;3.85;1.35;;;4.00;95.80;;;;;;4997209;28;20079;-89
2021/11/23 00:22:02;;;;;;;1.83;1.58;;;4.00;95.90;;;;;;5000302;28;20149;-89
2021/11/23 00:24:28;;;;;;;4.15;2.25;;;4.00;95.90;;;;;;5000767;28;20022;-89
2021/11/23 00:26:54;;;;;;;2.83;2.05;;;4.00;95.90;;;;;;5001145;28;20033;-89
2021/11/23 00:29:20;;;;;;;2.28;1.85;;;4.00;96.00;;;;;;5034523;28;20061;-90
2021/11/23 00:31:45;;;;;;;2.22;1.67;;;4.00;96.00;;;;;;5000958;28;20025;-90
2021/11/23 00:34:11;;;;;;;1.98;1.52;;;4.00;96.00;;;;;;5033170;28;20022;-89
2021/11/23 00:36:37;;;;;;;2.65;1.80;;;4.10;96.00;;;;;;5000330;28;20037;-90
2021/11/23 00:39:04;;;;;;;3.50;1.42;;;4.10;95.90;;;;;;5000241;28;20037;-90
2021/11/23 00:41:30;;;;;;;3.00;1.77;;;4.20;96.00;;;;;;4999769;28;20037;-89
2021/11/23 00:43:55;;;;;;;3.15;2.13;;;4.20;95.80;;;;;;4999762;28;20026;-89
2021/11/23 00:46:21;;;;;;;4.93;2.58;;;4.20;95.70;;;;;;4999692;28;20034;-90
2021/11/23 00:48:47;;;;;;;2.70;2.10;;;4.20;95.70;;;;;;4999755;28;20026;-90
2021/11/23 00:51:13;;;;;;;4.32;2.33;;;4.10;95.80;;;;;;5016870;28;20053;-90
2021/11/23 00:53:39;;;;;;;2.58;2.13;;;4.10;95.80;;;;;;5016980;28;20040;-89
2021/11/23 00:56:06;;;;;;;3.17;2.13;;;4.00;95.90;;;;;;5000425;28;20527;-88
2021/11/23 00:58:32;;;;;;;2.95;2.13;;;4.00;95.90;;;;;;5017050;28;20108;-90
2021/11/23 01:00:58;;;;;;;3.33;1.77;;;4.00;96.00;;;;;;4999871;28;20118;-90
2021/11/23 01:03:27;;;;;;;2.88;2.25;;;3.90;96.00;;;;;;4999600;28;20128;-90
2021/11/23 01:05:54;;;;;;;2.63;1.85;;;3.90;96.00;;;;;;5009082;28;20040;-89
2021/11/23 01:08:20;;;;;;;2.92;2.45;;;3.90;96.00;;;;;;5032330;28;20057;-89
2021/11/23 01:10:46;;;;;;;2.65;1.67;;;3.90;96.00;;;;;;5021289;28;20061;-90
2021/11/23 01:13:12;;;;;;;2.90;2.05;;;3.80;96.10;;;;;;5038737;28;20061;-90
2021/11/23 01:15:38;;;;;;;2.88;2.28;;;3.80;95.60;;;;;;5015331;28;20072;-90
2021/11/23 01:18:04;;;;;;;2.28;1.70;;;3.80;95.50;;;;;;5017865;28;20026;-89
2021/11/23 01:20:31;;;;;;;3.47;3.17;;;3.80;95.40;;;;;;5010257;28;20033;-90
2021/11/23 01:22:57;;;;;;;2.47;1.70;;;3.70;95.00;;;;;;5008431;28;20041;-90
2021/11/23 01:25:24;;;;;;;3.67;2.00;;;3.70;95.00;;;;;;5008152;28;20029;-90
2021/11/23 01:27:50;;;;;;;4.22;1.92;;;3.80;94.90;;;;;;5007728;28;20045;-90
2021/11/23 01:30:16;;;;;;;2.22;1.52;;;3.70;94.60;;;;;;5004578;28;20032;-90
2021/11/23 01:32:42;;;;;;;3.05;1.70;;;3.70;94.70;;;;;;4998788;28;20121;-89
2021/11/23 01:35:09;;;;;;;2.90;2.22;;;3.70;94.70;;;;;;4999562;28;20119;-90
2021/11/23 01:37:36;;;;;;;2.15;1.95;;;3.60;94.60;;;;;;4999891;28;20036;-89
2021/11/23 01:40:03;;;;;;;2.63;1.60;;;3.60;94.50;;;;;;4998698;28;20053;-89
2021/11/23 01:42:29;;;;;;;2.80;2.20;;;3.60;94.60;;;;;;4998796;28;20044;-90
2021/11/23 01:44:55;;;;;;;3.17;1.70;;;3.60;94.60;;;;;;4998930;28;20117;-89
2021/11/23 01:47:21;;;;;;;4.15;2.15;;;3.60;94.70;;;;;;4998685;28;20060;-89
2021/11/23 01:49:47;;;;;;;2.28;1.63;;;3.50;94.50;;;;;;4999835;28;20465;-89
2021/11/23 01:52:13;;;;;;;4.57;2.22;;;3.50;94.60;;;;;;5001116;28;20033;-89
2021/11/23 01:54:40;;;;;;;2.50;1.75;;;3.60;94.80;;;;;;5002204;28;20032;-89
2021/11/23 01:57:07;;;;;;;5.00;1.70;;;3.50;94.70;;;;;;5001235;28;20025;-90
2021/11/23 01:59:33;;;;;;;2.85;2.00;;;3.50;94.70;;;;;;5021212;28;20084;-90
2021/11/23 02:01:59;;;;;;;4.03;1.92;;;3.50;94.80;;;;;;5004203;28;20498;-90
2021/11/23 02:04:25;;;;;;;2.53;1.83;;;3.50;94.90;;;;;;5001602;28;20026;-90
2021/11/23 02:06:51;;;;;;;4.80;2.38;;;3.50;94.90;;;;;;5003306;28;20026;-90
2021/11/23 02:09:17;;;;;;;2.40;2.15;;;3.40;95.10;;;;;;5035584;28;20026;-90
2021/11/23 02:11:44;;;;;;;5.20;2.42;;;3.40;95.10;;;;;;5000129;28;20388;-89
2021/11/23 02:14:10;;;;;;;3.78;2.30;;;3.40;95.20;;;;;;5000631;28;20076;-89
2021/11/23 02:16:36;;;;;;;3.53;2.20;;;3.40;95.20;;;;;;4999756;28;20080;-89
2021/11/23 02:19:02;;;;;;;1.75;1.33;;;3.40;95.10;;;;;;5000837;28;20057;-89
2021/11/23 02:21:28;;;;;;;3.53;1.60;;;3.30;95.10;;;;;;5001167;28;20036;-89
2021/11/23 02:23:55;;;;;;;1.98;1.30;;;3.30;95.30;;;;;;5001272;28;20026;-89
2021/11/23 02:26:21;;;;;;;4.57;2.60;;;3.30;95.40;;;;;;5019920;28;20033;-90
2021/11/23 02:28:47;;;;;;;3.55;2.55;;;3.30;95.40;;;;;;5031827;28;20029;-90
2021/11/23 02:31:13;;;;;;;2.00;1.75;;;3.30;95.30;;;;;;4998203;28;20026;-90
2021/11/23 02:33:39;;;;;;;2.47;1.60;;;3.30;95.40;;;;;;4997719;28;20033;-90
2021/11/23 02:36:08;;;;;;;4.63;1.45;;;3.20;95.20;;;;;;5015598;28;20479;-90
2021/11/23 02:38:35;;;;;;;2.00;1.90;;;3.20;95.10;;;;;;4998261;28;20036;-90
2021/11/23 02:41:02;;;;;;;4.57;2.05;;;3.20;95.00;;;;;;4999612;28;20036;-90
2021/11/23 02:43:28;;;;;;;4.63;2.15;;;3.20;95.10;;;;;;5006937;28;20049;-90
2021/11/23 02:45:54;;;;;;;2.58;1.95;;;3.20;95.10;;;;;;5008453;28;20373;-90
2021/11/23 02:48:20;;;;;;;2.40;1.58;;;3.10;95.10;;;;;;5005667;28;20034;-90
2021/11/23 02:50:53;;;;;;;2.05;1.63;;;3.10;95.20;;;;;;5023587;28;20037;-90
2021/11/23 02:53:19;;;;;;;3.13;2.08;;;3.10;95.50;;;;;;5005791;28;20049;-90
2021/11/23 02:55:45;;;;;;;1.90;1.40;;;3.10;95.20;;;;;;5004157;28;20030;-90
2021/11/23 02:58:10;;;;;;;3.65;1.48;;;3.10;95.20;;;;;;4999458;28;20041;-90
2021/11/23 03:00:38;;;;;;;3.00;1.80;;;3.10;95.20;;;;;;5016456;28;20028;-90
2021/11/23 03:03:04;;;;;;;2.35;1.60;;;3.10;95.10;;;;;;4998576;28;20034;-90
2021/11/23 03:05:30;;;;;;;2.63;1.70;;;3.20;95.20;;;;;;4997554;28;20034;-90
2021/11/23 03:07:57;;;;;;;4.07;2.17;;;3.20;95.20;;;;;;4997882;28;20064;-90
2021/11/23 03:10:24;;;;;;;3.28;2.42;;;3.20;95.10;;;;;;4997346;28;20041;-90
2021/11/23 03:12:52;;;;;;;2.10;1.77;;;3.20;95.10;;;;;;4997423;28;20469;-90
2021/11/23 03:15:19;;;;;;;3.10;1.63;;;3.20;95.10;;;;;;4996923;28;20524;-90
2021/11/23 03:17:46;;;;;;;4.35;2.38;;;3.20;95.10;;;;;;4997004;28;20026;-90
2021/11/23 03:20:15;;;;;;;3.90;1.60;;;3.20;95.10;;;;;;4997461;28;20029;-90
2021/11/23 03:22:41;;;;;;;2.67;1.90;;;3.20;95.00;;;;;;5014732;28;20057;-90
2021/11/23 03:25:08;;;;;;;3.10;1.83;;;3.20;95.00;;;;;;4996996;28;20457;-90
2021/11/23 03:27:34;;;;;;;2.80;2.25;;;3.10;95.00;;;;;;4997182;28;20026;-90
2021/11/23 03:30:00;;;;;;;3.30;2.05;;;3.10;95.10;;;;;;5014319;28;20025;-91
2021/11/23 03:32:26;;;;;;;2.72;1.67;;;3.10;95.20;;;;;;4996964;28;20038;-90
2021/11/23 03:34:52;;;;;;;2.15;1.90;;;3.10;95.20;;;;;;4996774;28;20026;-90
2021/11/23 03:37:23;;;;;;;4.18;2.03;;;3.10;95.30;;;;;;4997602;28;20034;-90
2021/11/23 03:39:50;;;;;;;4.18;2.60;;;3.00;95.30;;;;;;4998254;28;20424;-90
2021/11/23 03:42:17;;;;;;;3.42;2.00;;;3.00;95.40;;;;;;4997579;28;20044;-89
2021/11/23 03:44:44;;;;;;;3.05;1.63;;;3.00;95.40;;;;;;4997906;28;20058;-90
2021/11/23 03:47:11;;;;;;;1.48;1.38;;;3.00;95.60;;;;;;4997413;28;20083;-90
2021/11/23 03:49:37;;;;;;;4.75;2.53;;;3.00;95.50;;;;;;4997849;28;20037;-90
2021/11/23 03:52:04;;;;;;;5.38;3.28;;;2.90;95.90;;;;;;5014601;28;20034;-90
2021/11/23 03:54:30;;;;;;;3.60;2.15;;;2.90;96.00;;;;;;5015336;28;20199;-90
2021/11/23 03:56:56;;;;;;;2.63;1.70;;;2.90;95.90;;;;;;5000750;28;20030;-89
2021/11/23 03:59:21;;;;;;;3.50;1.85;;;2.90;95.90;;;;;;5000614;28;20420;-90
2021/11/23 04:01:48;;;;;;;3.88;1.77;;;3.00;95.90;;;;;;5000690;28;20029;-90
2021/11/23 04:04:14;;;;;;;2.58;1.80;;;3.00;95.80;;;;;;5001033;28;20030;-90
2021/11/23 04:06:39;;;;;;;1.63;1.42;;;2.90;96.00;;;;;;5000537;28;20042;-89
2021/11/23 04:09:06;;;;;;;3.30;2.45;;;2.90;95.80;;;;;;5009137;28;20089;-89
2021/11/23 04:11:32;;;;;;;2.05;1.85;;;2.90;95.90;;;;;;5019944;28;20010;-88
2021/11/23 04:13:58;;;;;;;3.42;1.60;;;2.90;96.00;;;;;;5023224;28;20085;-88
2021/11/23 04:16:24;;;;;;;2.88;2.20;;;2.90;95.90;;;;;;5024522;28;20077;-85
2021/11/23 04:18:51;;;;;;;2.20;2.00;;;2.90;95.90;;;;;;5023325;28;20218;-87
2021/11/23 04:21:18;;;;;;;2.92;2.03;;;2.90;96.00;;;;;;5022916;28;20010;-86
2021/11/23 04:23:44;;;;;;;1.95;1.63;;;2.80;95.90;;;;;;5018943;28;20025;-90
2021/11/23 04:26:10;;;;;;;2.28;2.13;;;2.80;96.10;;;;;;5007489;28;20030;-89
2021/11/23 04:28:36;;;;;;;2.45;1.55;;;2.70;96.10;;;;;;5038317;28;20057;-89
2021/11/23 04:31:02;;;;;;;2.42;1.75;;;2.70;96.10;;;;;;5001302;28;20032;-89
2021/11/23 04:33:28;;;;;;;1.65;1.33;;;2.80;96.10;;;;;;5017604;28;20026;-89
2021/11/23 04:35:54;;;;;;;2.17;1.95;;;2.80;96.00;;;;;;5000315;28;20061;-90
2021/11/23 04:38:20;;;;;;;2.08;1.52;;;2.80;95.90;;;;;;4999822;28;20034;-90
2021/11/23 04:40:46;;;;;;;1.83;1.60;;;2.80;95.90;;;;;;5000138;28;20045;-90
2021/11/23 04:43:11;;;;;;;2.33;2.10;;;2.80;95.80;;;;;;4999920;28;20183;-88
2021/11/23 04:45:38;;;;;;;1.80;1.65;;;2.80;95.70;;;;;;5000429;28;20026;-89
2021/11/23 04:48:04;;;;;;;2.20;1.95;;;2.80;95.70;;;;;;4999869;28;20026;-89
2021/11/23 04:50:30;;;;;;;5.00;1.90;;;2.80;95.70;;;;;;5017450;28;20456;-88
2021/11/23 04:52:56;;;;;;;3.15;1.95;;;2.90;95.70;;;;;;4999751;28;20030;-90
2021/11/23 04:55:22;;;;;;;2.33;1.85;;;2.90;95.50;;;;;;4999858;28;20057;-89
2021/11/23 04:57:48;;;;;;;3.63;1.90;;;2.90;95.40;;;;;;4999620;28;20080;-90
2021/11/23 05:00:17;;;;;;;2.30;1.80;;;2.90;95.30;;;;;;5017202;28;20034;-90
2021/11/23 05:02:43;;;;;;;1.75;1.60;;;2.90;95.30;;;;;;4999747;28;20092;-90
2021/11/23 05:05:12;;;;;;;1.58;1.27;;;2.80;95.00;;;;;;4999165;28;20030;-91
2021/11/23 05:07:38;;;;;;;4.28;2.13;;;2.80;94.90;;;;;;4999900;28;20529;-90
2021/11/23 05:10:09;;;;;;;3.65;1.60;;;2.80;94.90;;;;;;4999257;28;20037;-90
2021/11/23 05:12:35;;;;;;;1.50;1.40;;;2.80;94.80;;;;;;5016524;28;20519;-90
2021/11/23 05:15:02;;;;;;;1.52;1.15;;;2.80;94.40;;;;;;4999572;28;20060;-90
2021/11/23 05:17:28;;;;;;;3.13;1.75;;;2.80;94.20;;;;;;4999034;28;20026;-89
2021/11/23 05:19:54;;;;;;;1.70;1.60;;;2.90;94.30;;;;;;4999353;28;20041;-88
2021/11/23 05:22:20;;;;;;;3.42;2.10;;;2.80;94.20;;;;;;4999264;28;20501;-90
2021/11/23 05:24:46;;;;;;;1.58;1.10;;;2.90;94.40;;;;;;4999154;28;20385;-89
2021/11/23 05:27:12;;;;;;;2.75;1.48;;;2.80;94.40;;;;;;5000732;28;20026;-90
2021/11/23 05:29:38;;;;;;;2.45;1.30;;;2.90;94.30;;;;;;4999615;28;20032;-89
2021/11/23 05:32:04;;;;;;;3.65;1.83;;;2.90;94.30;;;;;;5000848;28;20380;-89
2021/11/23 05:34:30;;;;;;;3.00;2.30;;;2.90;94.00;;;;;;5007615;28;20065;-88
2021/11/23 05:36:56;;;;;;;2.80;2.17;;;2.90;94.00;;;;;;5010254;28;20030;-89
2021/11/23 05:39:21;;;;;;;3.45;1.65;;;3.00;94.00;;;;;;5018683;28;20071;-89
2021/11/23 05:41:49;;;;;;;2.30;2.03;;;2.90;93.60;;;;;;5017802;28;20033;-90
2021/11/23 05:44:15;;;;;;;1.95;1.40;;;2.80;93.50;;;;;;5017244;28;20022;-90
2021/11/23 05:46:41;;;;;;;1.77;1.67;;;2.80;93.60;;;;;;5019289;28;20021;-89
2021/11/23 05:49:08;;;;;;;1.65;1.42;;;2.80;93.40;;;;;;5016982;28;20037;-91
2021/11/23 05:51:34;;;;;;;2.78;1.85;;;2.80;92.90;;;;;;5007797;28;20041;-90
2021/11/23 05:54:01;;;;;;;2.92;1.95;;;2.80;93.10;;;;;;5000627;28;20520;-89
2021/11/23 05:56:26;;;;;;;1.88;1.60;;;2.70;93.10;;;;;;4998771;28;20037;-90
2021/11/23 05:58:52;;;;;;;1.75;1.65;;;2.70;93.10;;;;;;4998659;28;20453;-90
2021/11/23 06:01:18;;;;;;;3.50;2.03;;;2.70;92.70;;;;;;4999453;28;20339;-90
2021/11/23 06:03:44;;;;;;;1.70;1.52;;;2.70;92.80;;;;;;4999422;28;20033;-90
2021/11/23 06:06:13;;;;;;;2.80;1.95;;;2.60;92.30;;;;;;4998862;28;20038;-89
2021/11/23 06:08:39;;;;;;;1.98;1.70;;;2.70;92.60;;;;;;4998034;28;20034;-90
2021/11/23 06:11:05;;;;;;;2.45;1.67;;;2.70;92.80;;;;;;5016174;28;20033;-90
2021/11/23 06:13:31;;;;;;;1.52;1.30;;;2.70;92.50;;;;;;4998601;28;20046;-90
2021/11/23 06:15:57;;;;;;;3.38;1.88;;;2.70;92.20;;;;;;4999300;28;20484;-90
2021/11/23 06:18:23;;;;;;;3.20;1.83;;;2.70;92.20;;;;;;4999123;28;20030;-90
2021/11/23 06:20:54;;;;;;;3.50;1.90;;;2.80;92.20;;;;;;4999037;28;20033;-90
2021/11/23 06:23:22;;;;;;;1.58;1.40;;;2.80;92.10;;;;;;4999457;28;20044;-90
2021/11/23 06:25:52;;;;;;;2.80;1.42;;;2.80;91.90;;;;;;4998774;28;20539;-90
2021/11/23 06:28:19;;;;;;;1.60;1.27;;;2.80;91.60;;;;;;4998428;28;20021;-89
2021/11/23 06:30:46;;;;;;;2.53;1.25;;;2.80;91.90;;;;;;4998545;28;20026;-89
2021/11/23 06:33:11;;;;;;;2.28;1.40;;;2.80;91.50;;;;;;4998212;28;20033;-90
2021/11/23 06:35:38;;;;;;;2.47;2.25;;;2.70;91.50;;;;;;4999521;28;20034;-89
2021/11/23 06:38:05;;;;;;;3.13;2.00;;;2.70;91.70;;;;;;4999254;28;20089;-90
2021/11/23 06:40:32;;;;;;;1.70;1.60;;;2.70;91.40;;;;;;4998853;28;20030;-91
2021/11/23 06:42:58;;;;;;;3.50;2.40;;;2.70;91.50;;;;;;4998903;28;20057;-91
2021/11/23 06:45:24;;;;;;;2.05;1.40;;;2.80;91.20;;;;;;5001658;28;20033;-90
2021/11/23 06:47:50;;;;;;;2.20;1.77;;;2.80;91.00;;;;;;4999290;28;20022;-90
2021/11/23 06:50:20;;;;;;;2.78;1.20;;;2.80;91.10;;;;;;4998391;28;20032;-90
2021/11/23 06:52:45;;;;;;;2.22;1.55;;;2.90;91.10;;;;;;4998612;28;20037;-90
2021/11/23 06:55:12;;;;;;;2.17;1.63;;;2.90;90.70;;;;;;4998604;28;20026;-90
2021/11/23 06:57:37;;;;;;;1.35;1.17;;;2.90;90.50;;;;;;5000031;28;20030;-90
2021/11/23 07:00:08;;;;;;;12.00;2.17;;;2.90;90.50;;;;;;4998549;28;20029;-90
2021/11/23 07:02:36;;;;;;;2.40;1.60;;;2.90;89.50;;;;;;5015687;28;20064;-90
2021/11/23 07:05:05;;;;;;;1.40;1.23;;;2.90;90.00;;;;;;4997915;28;20030;-90
2021/11/23 07:07:31;;;;;;;2.03;1.88;;;3.00;90.00;;;;;;5002255;28;20033;-90
2021/11/23 07:09:58;;;;;;;2.63;2.35;;;3.10;90.60;;;;;;5012869;28;20026;-90
2021/11/23 07:12:23;;;;;;;3.60;1.85;;;3.10;89.30;;;;;;5013202;28;20053;-90
2021/11/23 07:14:49;;;;;;;3.55;1.95;;;3.10;88.70;;;;;;5012098;28;20050;-90
2021/11/23 07:17:15;;;;;;;1.88;1.50;;;3.10;87.30;;;;;;5010105;28;20034;-90
2021/11/23 07:19:41;;;;;;;1.92;1.75;;;3.00;87.50;;;;;;5008832;28;20026;-90
2021/11/23 07:22:06;;;;;;;1.15;0.73;;;3.00;86.00;;;;;;5006738;28;20228;-90
2021/11/23 07:24:32;;;;;;;1.98;1.50;;;2.90;86.30;;;;;;5005598;28;20030;-89
2021/11/23 07:26:58;;;;;;;2.08;1.60;;;2.90;86.40;;;;;;5008550;28;20025;-90
2021/11/23 07:29:24;;;;;;;4.72;1.65;;;2.80;87.30;;;;;;5008918;28;20022;-90
2021/11/23 07:31:52;;;;;;;1.20;1.10;;;2.80;88.50;;;;;;5009756;28;20176;-89
2021/11/23 07:34:20;;;;;;;2.83;1.38;;;2.90;88.60;;;;;;5008544;28;20036;-91
2021/11/23 07:36:46;;;;;;;3.38;1.63;;;2.90;88.40;;;;;;5007306;28;20029;-91
2021/11/23 07:39:11;;;;;;;1.70;1.30;;;3.00;87.50;;;;;;5003498;28;20464;-91
2021/11/23 07:41:37;;;;;;;2.58;1.80;;;3.00;86.60;;;;;;5021171;28;20128;-90
2021/11/23 07:44:05;;;;;;;1.77;1.60;;;3.00;86.40;;;;;;5002931;28;20525;-90
2021/11/23 07:46:32;;;;;;;2.08;1.25;;;3.00;85.40;;;;;;4990609;28;20041;-90
2021/11/23 07:48:57;;;;;;;3.90;1.67;;;3.00;85.60;;;;;;4988416;28;20046;-89
2021/11/23 07:51:23;;;;;;;1.55;1.30;;;3.00;84.80;;;;;;4990211;28;20022;-89
2021/11/23 07:53:49;;;;;;;3.25;1.85;;;3.00;85.20;;;;;;4981888;28;20049;-89
2021/11/23 07:56:15;;;;;;;2.38;1.67;;;3.00;85.60;;;;;;5009358;28;20033;-89
2021/11/23 07:58:41;;;;;;;2.63;1.50;;;3.00;83.30;;;;;;5000774;28;20036;-90
2021/11/23 08:01:07;;;;;;;1.70;1.60;;;3.00;84.10;;;;;;5000975;28;20057;-90
2021/11/23 08:03:50;;;;;;;2.30;1.58;;;3.00;84.20;;;;;;5000841;28;20053;-90
2021/11/23 08:06:18;;;;;;;1.77;1.67;;;3.00;84.90;;;;;;5004595;28;20030;-89
2021/11/23 08:08:47;;;;;;;1.58;1.30;;;3.10;83.70;;;;;;5006871;28;20255;-91
2021/11/23 08:11:13;;;;;;;1.58;1.20;;;3.10;83.20;;;;;;5004947;28;20033;-90
2021/11/23 08:13:43;;;;;;;2.97;1.75;;;3.10;83.10;;;;;;5005595;28;20060;-90
2021/11/23 08:16:23;;;;;;;;;;;;;;;;;;;;;
2021/11/23 08:18:53;;;;;;;1.67;1.48;;;3.20;81.70;;;;;;5021827;28;20117;-89
2021/11/23 08:21:19;;;;;;;2.15;1.38;;;3.20;79.90;;;;;;5004884;28;20045;-90
2021/11/23 08:23:51;;;;;;;1.85;0.90;;;3.20;79.10;;;;;;5005140;28;20039;-91
2021/11/23 08:26:22;;;;;;;1.60;1.20;;;3.20;80.40;;;;;;5004483;28;20096;-92
2021/11/23 08:28:51;;;;;;;2.45;1.23;;;3.20;78.90;;;;;;5005587;28;20030;-89
2021/11/23 08:31:19;;;;;;;1.52;1.33;;;3.10;77.50;;;;;;5020467;28;20022;-90
2021/11/23 08:33:54;;;;;;;2.15;1.50;;;3.10;79.40;;;;;;5000918;28;20030;-90
2021/11/23 08:36:20;;;;;;;1.95;1.50;;;3.00;80.00;;;;;;5003854;28;20042;-90
2021/11/23 08:38:49;;;;;;;5.50;1.63;;;3.10;80.60;;;;;;5011723;28;20029;-90
2021/11/23 08:41:22;;;;;;;1.88;1.77;;;3.10;80.30;;;;;;5017690;28;20082;-90
2021/11/23 08:44:07;;;;;;;2.05;1.35;;;3.20;78.80;;;;;;5018615;28;20080;-90
2021/11/23 08:46:33;;;;;;;2.88;1.45;;;3.30;76.60;;;;;;5015209;28;20472;-91
2021/11/23 08:49:00;;;;;;;3.08;1.80;;;3.30;76.10;;;;;;5008736;28;20033;-90
2021/11/23 08:51:30;;;;;;;1.70;1.60;;;3.40;77.50;;;;;;5008316;28;20026;-91
2021/11/23 08:53:56;;;;;;;2.53;1.15;;;3.50;78.40;;;;;;5004877;28;20037;-90
2021/11/23 08:56:22;;;;;;;5.30;1.42;;;3.60;75.10;;;;;;5003010;28;20548;-90
2021/11/23 08:58:52;;;;;;;3.08;2.28;;;3.60;75.40;;;;;;5000619;28;20049;-90
2021/11/23 09:01:24;;;;;;;1.92;1.17;;;3.60;76.40;;;;;;5000284;28;20026;-90
2021/11/23 09:03:50;;;;;;;2.05;1.40;;;3.70;77.00;;;;;;5001309;28;20061;-90
2021/11/23 09:06:16;;;;;;;1.63;1.45;;;3.80;75.10;;;;;;4999861;28;20026;-90
2021/11/23 09:08:55;;;;;;;4.53;2.13;;;3.90;74.60;;;;;;5001551;28;20026;-90
2021/11/23 09:11:22;;;;;;;3.85;1.80;;;3.90;75.20;;;;;;5002426;28;20117;-90
2021/11/23 09:13:48;;;;;;;2.65;2.05;;;3.80;73.60;;;;;;4999452;28;20049;-90
2021/11/23 09:16:14;;;;;;;3.42;1.58;;;3.80;73.60;;;;;;4999819;28;20164;-90
2021/11/23 09:18:40;;;;;;;2.33;1.27;;;3.70;73.30;;;;;;4999812;28;20029;-90
2021/11/23 09:21:06;;;;;;;2.03;1.17;;;3.80;74.80;;;;;;4999829;28;20033;-89
2021/11/23 09:23:31;;;;;;;1.20;1.10;;;3.90;75.50;;;;;;4999344;28;20068;-90
2021/11/23 09:25:57;;;;;;;6.10;2.17;;;4.00;74.40;;;;;;4999618;28;20119;-90
2021/11/23 09:28:23;;;;;;;2.97;1.98;;;4.00;72.40;;;;;;4998900;28;20026;-89
2021/11/23 09:30:49;;;;;;;2.35;1.95;;;4.00;72.00;;;;;;4999305;28;20102;-89
2021/11/23 09:33:16;;;;;;;1.83;1.60;;;3.90;72.50;;;;;;4998520;28;20022;-90
2021/11/23 09:35:42;;;;;;;2.97;1.35;;;4.00;72.80;;;;;;4998915;28;20034;-90
2021/11/23 09:38:09;;;;;;;1.95;1.55;;;4.00;73.10;;;;;;4998915;28;20025;-90
2021/11/23 09:40:35;;;;;;;2.90;1.85;;;4.00;72.70;;;;;;4999149;28;20026;-91
2021/11/23 09:43:01;;;;;;;3.15;1.58;;;4.00;72.70;;;;;;5000091;28;20034;-90
2021/11/23 09:45:27;;;;;;;4.55;2.17;;;4.10;73.60;;;;;;4999508;28;20453;-90
2021/11/23 09:47:53;;;;;;;1.65;1.45;;;4.10;72.90;;;;;;5003514;28;20037;-89
2021/11/23 09:50:19;;;;;;;2.63;1.85;;;4.20;71.80;;;;;;5033155;28;20484;-90
2021/11/23 09:52:46;;;;;;;1.60;1.38;;;4.10;70.50;;;;;;5009896;28;20365;-90
2021/11/23 09:55:14;;;;;;;1.88;1.70;;;4.10;71.00;;;;;;4999111;28;20037;-90
2021/11/23 09:57:40;;;;;;;1.83;1.73;;;4.10;70.70;;;;;;4999420;28;20364;-90
2021/11/23 10:00:25;;;;;;;1.48;1.25;;;4.10;69.10;;;;;;5000714;28;20074;-90
2021/11/23 10:02:51;;;;;;;1.80;1.70;;;4.10;67.70;;;;;;4999237;28;20034;-89
2021/11/23 10:05:19;;;;;;;1.77;1.50;;;4.00;67.90;;;;;;4998585;28;20030;-90
2021/11/23 10:07:47;;;;;;;1.45;1.35;;;4.00;68.80;;;;;;5001453;28;20040;-90
2021/11/23 10:10:24;;;;;;;1.63;1.25;;;3.90;67.50;;;;;;5010221;28;20026;-90
2021/11/23 10:12:57;;;;;;;3.08;1.88;;;3.90;67.80;;;;;;5010306;28;20033;-90
2021/11/23 10:15:29;;;;;;;2.87;2.23;;;3.90;67.50;;;;;;5031541;28;20046;-90
2021/11/23 10:18:18;;;;;;;2.38;1.50;;;3.90;67.30;;;;;;4998844;28;20179;-90
2021/11/23 10:21:05;;;;;;;1.95;1.20;;;3.90;67.40;;;;;;4990111;28;20030;-90
2021/11/23 10:23:35;;;;;;;2.70;1.60;;;3.90;68.70;;;;;;5010125;28;20101;-91
2021/11/23 10:26:13;;;;;;;1.70;1.35;;;4.00;67.60;;;;;;4992672;28;20404;-92
2021/11/23 10:28:58;;;;;;;2.13;1.20;;;4.00;67.70;;;;;;4987582;28;20038;-90
2021/11/23 10:31:43;;;;;;;2.33;1.52;;;4.00;68.80;;;;;;4995405;28;20108;-90
2021/11/23 10:34:09;;;;;;;;;;;4.10;68.30;;;;;;4976154;28;20138;-92
2021/11/23 10:36:43;;;;;;;1.90;1.73;;;4.10;65.40;;;;;;4988686;28;19914;-92
2021/11/23 10:39:20;;;;;;;2.20;1.63;;;4.10;66.80;;;;;;4991885;28;20131;-92
2021/11/23 10:41:56;;;;;;;4.32;1.23;;;4.00;66.90;;;;;;5018349;28;20848;-92
2021/11/23 10:44:30;;;;;;;1.77;1.65;;;4.00;66.80;;;;;;5015158;28;20038;-92
2021/11/23 10:47:05;;;;;;;1.98;1.67;;;4.00;67.20;;;;;;5028670;28;20042;-92
2021/11/23 10:49:51;;;;;;;2.58;1.80;;;3.90;66.80;;;;;;5005698;28;20045;-92
2021/11/23 10:52:33;;;;;;;1.70;1.38;;;3.90;67.80;;;;;;5010261;28;20065;-91
2021/11/23 10:55:29;;;;;;;2.55;1.55;;;3.80;66.90;;;;;;5013321;28;20125;-92
2021/11/23 10:58:03;;;;;;;3.33;1.45;;;3.80;67.80;;;;;;4981146;28;20022;-92
2021/11/23 11:00:35;;;;;;;2.03;1.35;;;3.90;68.40;;;;;;5005351;28;20030;-93
2021/11/23 11:03:12;;;;;;;2.78;1.90;;;4.00;68.60;;;;;;5006676;28;20032;-94
2021/11/23 11:05:49;;;;;;;2.13;1.60;;;4.00;67.90;;;;;;5005654;28;20045;-92
2021/11/23 11:08:23;;;;;;;3.08;2.00;;;4.00;67.10;;;;;;4989908;28;20086;-93
2021/11/23 11:10:54;;;;;;;1.90;1.33;;;4.00;67.70;;;;;;4974962;28;20042;-93
2021/11/23 11:13:24;;;;;;;2.33;1.60;;;4.10;67.60;;;;;;5010349;28;20858;-92
2021/11/23 11:15:58;;;;;;;2.38;1.67;;;4.10;67.70;;;;;;5000761;28;20092;-91
2021/11/23 11:18:28;;;;;;;1.52;1.42;;;4.20;67.60;;;;;;4998157;28;20044;-92
2021/11/23 11:21:02;;;;;;;2.90;1.67;;;4.20;67.10;;;;;;4983065;28;20045;-92
2021/11/23 11:23:29;;;;;;;2.38;1.42;;;4.30;67.50;;;;;;4994216;28;20022;-93
2021/11/23 11:29:32;;;;;;;3.30;1.80;;;4.40;67.10;;;;;;5018184;28;20057;-91
2021/11/23 11:35:50;;;;;;;2.15;1.60;;;4.30;65.40;;;;;;5020625;28;20049;-93
2021/11/23 11:38:46;;;;;;;1.40;1.30;;;4.10;65.40;;;;;;4994655;28;20034;-92
2021/11/23 11:41:36;;;;;;;1.85;1.63;;;4.10;66.50;;;;;;5012660;28;20034;-94
2021/11/23 11:44:19;;;;;;;1.40;1.17;;;4.20;67.70;;;;;;5013376;28;20030;-92
2021/11/23 11:47:07;;;;;;;2.67;2.00;;;4.30;67.80;;;;;;5010470;28;20043;-91
2021/11/23 11:49:59;;;;;;;1.73;1.55;;;4.40;66.60;;;;;;4973288;28;20092;-91
2021/11/23 11:52:28;;;;;;;2.75;1.60;;;4.30;65.40;;;;;;5004364;28;20038;-92
2021/11/23 11:55:12;;;;;;;1.52;1.15;;;4.30;66.40;;;;;;4985558;28;20027;-92
2021/11/23 11:57:46;;;;;;;1.70;1.50;;;4.20;66.70;;;;;;4982011;28;20046;-91
2021/11/23 12:00:34;;;;;;;1.60;1.13;;;4.20;67.40;;;;;;4981803;28;20063;-93
2021/11/23 12:03:23;;;;;;;1.85;1.45;;;4.30;67.40;;;;;;4983478;28;20133;-94
2021/11/23 12:09:54;;;;;;;2.03;1.55;;;4.30;66.60;;;;;;4943889;29;20135;-94
2021/11/23 12:16:37;;;;;;;1.25;1.15;;;4.40;67.10;;;;;;4974623;28;20114;-94
2021/11/23 12:19:28;;;;;;;2.90;2.00;;;4.40;66.00;;;;;;4982868;28;20054;-93
2021/11/23 12:22:03;;;;;;;2.45;0.90;;;4.40;66.40;;;;;;4982702;28;20076;-92
2021/11/23 12:25:12;;;;;;;1.45;1.10;;;4.50;67.50;;;;;;4985152;28;20586;-93
2021/11/23 12:27:46;;;;;;;2.60;1.77;;;4.60;67.90;;;;;;5000992;28;20037;-93
2021/11/23 12:30:56;;;;;;;2.15;1.40;;;4.70;67.90;;;;;;4991248;28;20098;-92
2021/11/23 12:33:32;;;;;;;1.98;1.30;;;4.70;67.30;;;;;;4963722;28;20063;-92
2021/11/23 12:35:59;;;;;;;1.60;1.40;;;4.70;67.40;;;;;;4970881;28;20090;-91
2021/11/23 12:38:36;;;;;;;3.45;2.15;;;4.70;67.10;;;;;;4958210;28;20042;-93
2021/11/23 12:41:24;;;;;;;2.90;2.25;;;4.60;67.40;;;;;;4981762;28;20042;-94
2021/11/23 13:26:09;;;;;;;2.85;1.75;;;4.50;68.50;;;;;;4305272;23;20341;31
2021/11/23 13:29:06;;;;;;;4.35;1.95;;;4.40;68.40;;;;;;4939646;29;20461;-92
2021/11/23 13:31:42;;;;;;;2.03;1.45;;;4.40;68.40;;;;;;4929460;29;20036;-90
2021/11/23 13:34:12;;;;;;;1.33;1.23;;;4.40;69.10;;;;;;4931754;29;20040;-90
2021/11/23 13:36:42;;;;;;;3.97;1.73;;;4.40;69.60;;;;;;4919175;29;20058;-90
2021/11/23 13:39:17;;;;;;;2.15;1.45;;;4.50;69.20;;;;;;4935796;29;20071;-91
2021/11/23 13:41:50;;;;;;;1.88;1.58;;;4.50;69.70;;;;;;4949919;29;20031;-91
2021/11/23 13:44:30;;;;;;;2.72;1.80;;;4.50;69.00;;;;;;4917802;29;20038;-92
2021/11/23 13:47:23;;;;;;;6.60;2.25;;;4.50;68.60;;;;;;4916311;29;20044;-93
2021/11/23 13:50:05;;;;;;;1.33;1.13;;;4.50;68.90;;;;;;4914275;29;20140;-93
2021/11/23 13:52:35;;;;;;;3.28;2.15;;;4.50;69.40;;;;;;4911599;29;20047;-91
2021/11/23 13:55:09;;;;;;;2.25;1.75;;;4.50;69.40;;;;;;4918363;29;20040;-92
2021/11/23 13:57:48;;;;;;;2.53;1.90;;;4.50;69.00;;;;;;4915793;29;20494;-90
2021/11/23 14:00:44;;;;;;;2.42;1.98;;;4.50;69.20;;;;;;4916461;29;20123;-91
2021/11/23 15:07:26;;;;;;;1.85;1.27;;;4.10;71.70;;;;;;4947865;29;20099;-92
2021/11/23 15:10:03;;;;;;;2.35;1.48;;;4.20;71.80;;;;;;4921317;29;20035;-93